createdAt,value
2022-11-28T00:02:23.596Z,98168.81
2022-11-28T00:04:53.080Z,98172.97
2022-11-28T00:07:22.891Z,98166.44
2022-11-28T00:09:53.066Z,98176.03
2022-11-28T00:12:21.330Z,98175.81
2022-11-28T00:14:49.676Z,98167.53
2022-11-28T00:17:17.947Z,98167.44
2022-11-28T00:19:46.202Z,98165.34
2022-11-28T00:22:14.477Z,98157.19
2022-11-28T00:24:44.490Z,98158.25
2022-11-28T00:27:12.992Z,98159.78
2022-11-28T00:29:41.540Z,98158.63
2022-11-28T00:32:09.901Z,98156.66
2022-11-28T00:34:38.161Z,98158.78
2022-11-28T00:37:06.460Z,98151.75
2022-11-28T00:39:34.699Z,98158.31
2022-11-28T00:42:04.919Z,98155.56
2022-11-28T00:44:33.854Z,98151.91
2022-11-28T00:47:02.146Z,98153.66
2022-11-28T00:49:30.403Z,98154.13
2022-11-28T00:51:58.647Z,98152.13
2022-11-28T00:54:26.917Z,98156.28
2022-11-28T00:56:55.240Z,98152.84
2022-11-28T00:59:24.858Z,98148.66
2022-11-28T01:01:53.187Z,98142.53
2022-11-28T01:04:21.449Z,98140.81
2022-11-28T01:06:50.894Z,98134.78
2022-11-28T01:09:21.223Z,98139.78
2022-11-28T01:11:50.335Z,98132.97
2022-11-28T01:14:20.193Z,98134.94
2022-11-28T01:16:50.087Z,98135.03
2022-11-28T01:19:18.396Z,98135.91
2022-11-28T01:21:46.819Z,98130.66
2022-11-28T01:24:16.858Z,98122.91
2022-11-28T01:26:45.214Z,98128.75
2022-11-28T01:29:13.693Z,98120.28
2022-11-28T01:31:42.416Z,98114.19
2022-11-28T01:34:12.239Z,98102.13
2022-11-28T01:36:40.471Z,98100.38
2022-11-28T01:39:08.891Z,98096.97
2022-11-28T01:41:37.169Z,98102.06
2022-11-28T01:44:09.285Z,98101.41
2022-11-28T01:46:37.875Z,98096.47
2022-11-28T01:49:12.493Z,98097.94
2022-11-28T01:51:43.915Z,98103.31
2022-11-28T01:54:12.711Z,98094.28
2022-11-28T01:56:45.028Z,98094.66
2022-11-28T01:59:15.247Z,98090.69
2022-11-28T02:01:44.529Z,98083.50
2022-11-28T02:04:15.002Z,98080.56
2022-11-28T02:06:43.734Z,98075.72
2022-11-28T02:09:13.408Z,98067.31
2022-11-28T02:11:56.811Z,98074.94
2022-11-28T02:14:35.185Z,98073.91
2022-11-28T02:17:13.387Z,98069.94
2022-11-28T02:20:04.619Z,98068.69
2022-11-28T02:22:38.295Z,98071.47
2022-11-28T02:25:27.987Z,98064.06
2022-11-28T02:28:31.026Z,98062.09
2022-11-28T02:31:04.502Z,98062.97
2022-11-28T02:33:35.725Z,98053.06
2022-11-28T02:36:11.764Z,98050.28
2022-11-28T02:38:52.449Z,98051.47
2022-11-28T02:41:27.070Z,98048.16
2022-11-28T02:44:03.747Z,98042.53
2022-11-28T02:46:39.335Z,98040.84
2022-11-28T02:49:11.811Z,98036.81
2022-11-28T02:51:42.366Z,98035.56
2022-11-28T02:54:13.127Z,98036.09
2022-11-28T02:56:48.466Z,98031.19
2022-11-28T02:59:35.175Z,98033.56
2022-11-28T03:02:04.220Z,98030.09
2022-11-28T03:04:40.482Z,98026.44
2022-11-28T03:07:17.630Z,98026.84
2022-11-28T03:09:56.312Z,98012.34
2022-11-28T03:12:31.626Z,98015.50
2022-11-28T03:15:02.285Z,98017.25
2022-11-28T03:17:35.893Z,98020.50
2022-11-28T03:20:15.577Z,98022.63
2022-11-28T03:22:50.055Z,98022.09
2022-11-28T03:25:24.009Z,98025.31
2022-11-28T03:27:57.889Z,98019.78
2022-11-28T03:30:30.886Z,98019.69
2022-11-28T03:32:59.918Z,98011.38
2022-11-28T03:35:32.703Z,98010.22
2022-11-28T03:38:04.423Z,98007.88
2022-11-28T03:40:36.940Z,98010.44
2022-11-28T03:43:07.172Z,98015.19
2022-11-28T03:45:38.455Z,98020.09
2022-11-28T03:48:10.420Z,98019.69
2022-11-28T03:50:43.627Z,98004.72
2022-11-28T03:53:16.160Z,98010.19
2022-11-28T03:55:47.074Z,98007.72
2022-11-28T03:58:18.818Z,98005.34
2022-11-28T04:00:51.774Z,98001.25
2022-11-28T04:03:27.214Z,97993.03
2022-11-28T04:06:01.563Z,97992.22
2022-11-28T04:08:32.996Z,97988.41
2022-11-28T04:11:06.219Z,97991.25
2022-11-28T04:13:37.673Z,97988.47
2022-11-28T04:16:09.838Z,97981.91
2022-11-28T04:18:46.214Z,97984.59
2022-11-28T04:21:20.189Z,97981.94
2022-11-28T04:23:49.893Z,97982.16
2022-11-28T04:26:23.108Z,97978.03
2022-11-28T04:28:52.107Z,97975.44
2022-11-28T04:31:22.752Z,97969.63
2022-11-28T04:33:55.515Z,97973.50
2022-11-28T04:36:26.748Z,97967.56
2022-11-28T04:38:56.676Z,97967.00
2022-11-28T04:41:29.385Z,97962.22
2022-11-28T04:44:01.037Z,97963.72
2022-11-28T04:46:34.167Z,97960.13
2022-11-28T04:49:02.558Z,97971.88
2022-11-28T04:51:37.227Z,97968.38
2022-11-28T04:54:10.785Z,97970.75
2022-11-28T04:56:42.509Z,97972.41
2022-11-28T04:59:11.088Z,97977.00
2022-11-28T05:01:40.055Z,97974.81
2022-11-28T05:04:08.652Z,97984.16
2022-11-28T05:06:38.700Z,97979.53
2022-11-28T05:09:07.110Z,97983.16
2022-11-28T05:11:35.370Z,97985.94
2022-11-28T05:14:03.671Z,97989.50
2022-11-28T05:16:31.988Z,97995.09
2022-11-28T05:19:00.330Z,97993.44
2022-11-28T05:21:28.611Z,97995.09
2022-11-28T05:23:58.154Z,97996.50
2022-11-28T05:26:26.443Z,97998.25
2022-11-28T05:28:54.699Z,98001.56
2022-11-28T05:31:23.287Z,97999.88
2022-11-28T05:33:52.067Z,97995.91
2022-11-28T05:36:20.256Z,97988.03
2022-11-28T05:38:48.829Z,97989.94
2022-11-28T05:41:22.584Z,97980.72
2022-11-28T05:43:51.111Z,97978.00
2022-11-28T05:46:19.834Z,97981.31
2022-11-28T05:48:48.411Z,97979.66
2022-11-28T05:51:16.718Z,97983.06
2022-11-28T05:53:45.148Z,97981.16
2022-11-28T05:56:16.398Z,97987.63
2022-11-28T05:58:46.113Z,97980.88
2022-11-28T06:01:16.245Z,97978.19
2022-11-28T06:03:44.826Z,97968.78
2022-11-28T06:06:15.331Z,97971.47
2022-11-28T06:08:43.727Z,97966.53
2022-11-28T06:11:14.717Z,97964.75
2022-11-28T06:13:43.309Z,97959.41
2022-11-28T06:16:14.619Z,97961.81
2022-11-28T06:18:43.317Z,97972.41
2022-11-28T06:21:13.189Z,97968.84
2022-11-28T06:23:41.967Z,97970.28
2022-11-28T06:26:11.655Z,97958.00
2022-11-28T06:28:40.647Z,97961.56
2022-11-28T06:31:13.139Z,97957.28
2022-11-28T06:33:41.980Z,97960.28
2022-11-28T06:36:11.827Z,97956.41
2022-11-28T06:38:40.294Z,97963.13
2022-11-28T06:41:10.275Z,97963.47
2022-11-28T06:43:38.696Z,97959.75
2022-11-28T06:46:07.248Z,97962.66
2022-11-28T06:48:38.852Z,97959.13
2022-11-28T06:51:08.437Z,97960.03
2022-11-28T06:53:37.023Z,97961.22
2022-11-28T06:56:07.004Z,97957.91
2022-11-28T06:58:35.791Z,97960.28
2022-11-28T07:01:08.522Z,97966.91
2022-11-28T07:03:39.512Z,97963.88
2022-11-28T07:06:08.424Z,97963.28
2022-11-28T07:08:37.335Z,97967.31
2022-11-28T07:11:11.448Z,97967.50
2022-11-28T07:13:40.250Z,97961.88
2022-11-28T07:16:08.979Z,97967.59
2022-11-28T07:18:38.859Z,97962.47
2022-11-28T07:21:07.543Z,97958.47
2022-11-28T07:23:36.014Z,97950.41
2022-11-28T07:26:05.554Z,97956.44
2022-11-28T07:28:35.052Z,97946.59
2022-11-28T07:31:05.766Z,97939.38
2022-11-28T07:33:35.728Z,97950.44
2022-11-28T07:36:07.293Z,97940.47
2022-11-28T07:38:37.125Z,97945.69
2022-11-28T07:41:08.465Z,97948.25
2022-11-28T07:43:37.561Z,97944.88
2022-11-28T07:46:07.398Z,97940.28
2022-11-28T07:48:36.551Z,97942.38
2022-11-28T07:51:09.651Z,97947.72
2022-11-28T07:53:38.688Z,97937.09
2022-11-28T07:56:09.010Z,97942.03
2022-11-28T07:58:39.110Z,97935.03
2022-11-28T08:01:10.968Z,97935.75
2022-11-28T08:03:39.492Z,97943.84
2022-11-28T08:06:09.976Z,97935.63
2022-11-28T08:08:38.481Z,97938.84
2022-11-28T08:11:08.157Z,97934.19
2022-11-28T08:13:37.656Z,97939.16
2022-11-28T08:16:07.706Z,97937.81
2022-11-28T08:18:36.277Z,97940.63
2022-11-28T08:21:06.384Z,97934.25
2022-11-28T08:23:36.835Z,97935.06
2022-11-28T08:26:06.577Z,97938.91
2022-11-28T08:28:35.050Z,97938.81
2022-11-28T08:31:10.470Z,97931.03
2022-11-28T08:33:39.000Z,97937.28
2022-11-28T08:36:08.043Z,97931.91
2022-11-28T08:38:38.459Z,97933.84
2022-11-28T08:41:08.779Z,97934.34
2022-11-28T08:43:38.018Z,97930.44
2022-11-28T08:46:07.081Z,97921.69
2022-11-28T08:48:36.274Z,97930.31
2022-11-28T08:51:05.030Z,97928.25
2022-11-28T08:53:33.451Z,97925.13
2022-11-28T08:56:03.767Z,97926.41
2022-11-28T08:58:32.057Z,97922.72
2022-11-28T09:01:00.450Z,97923.03
2022-11-28T09:03:28.790Z,97919.81
2022-11-28T09:06:01.623Z,97921.13
2022-11-28T09:08:30.037Z,97918.44
2022-11-28T09:10:58.436Z,97912.84
2022-11-28T09:13:28.347Z,97916.34
2022-11-28T09:15:56.716Z,97901.19
2022-11-28T09:18:25.070Z,97900.06
2022-11-28T09:20:58.772Z,97894.75
2022-11-28T09:23:27.139Z,97896.94
2022-11-28T09:25:55.468Z,97892.88
2022-11-28T09:28:24.575Z,97887.88
2022-11-28T09:31:01.500Z,97885.94
2022-11-28T09:33:30.057Z,97879.66
2022-11-28T09:35:58.404Z,97881.31
2022-11-28T09:38:27.008Z,97860.56
2022-11-28T09:40:55.299Z,97859.63
2022-11-28T09:43:29.934Z,97855.72
2022-11-28T09:46:02.066Z,97848.91
2022-11-28T09:48:32.942Z,97848.06
2022-11-28T09:51:04.627Z,97839.88
2022-11-28T09:53:39.128Z,97845.69
2022-11-28T09:56:12.387Z,97837.75
2022-11-28T09:58:44.287Z,97835.41
2022-11-28T10:01:18.622Z,97819.06
2022-11-28T10:03:54.594Z,97815.53
2022-11-28T10:06:26.362Z,97810.41
2022-11-28T10:09:13.075Z,97815.78
2022-11-28T10:11:51.448Z,97807.09
2022-11-28T10:14:33.992Z,97805.72
2022-11-28T10:17:08.617Z,97804.72
2022-11-28T10:19:56.209Z,97800.13
2022-11-28T10:22:33.728Z,97793.56
2022-11-28T10:25:06.647Z,97791.69
2022-11-28T10:27:36.544Z,97794.69
2022-11-28T10:30:08.565Z,97787.78
2022-11-28T10:32:42.202Z,97785.50
2022-11-28T10:35:15.361Z,97785.03
2022-11-28T10:37:44.446Z,97786.00
2022-11-28T10:40:19.628Z,97780.72
2022-11-28T10:42:52.746Z,97776.03
2022-11-28T10:45:28.258Z,97775.47
2022-11-28T10:48:37.592Z,97766.94
2022-11-28T10:51:06.011Z,97763.72
2022-11-28T10:53:42.806Z,97760.47
2022-11-28T10:56:19.472Z,97758.25
2022-11-28T10:58:52.075Z,97764.59
2022-11-28T11:01:20.477Z,97763.44
2022-11-28T11:03:50.314Z,97764.75
2022-11-28T11:06:18.764Z,97771.13
2022-11-28T11:08:47.365Z,97761.91
2022-11-28T11:11:24.488Z,97757.72
2022-11-28T11:14:01.932Z,97759.34
2022-11-28T11:16:49.983Z,97752.06
2022-11-28T11:19:27.325Z,97751.81
2022-11-28T11:22:03.437Z,97746.81
2022-11-28T11:24:32.217Z,97738.97
2022-11-28T11:27:10.683Z,97740.53
2022-11-28T11:29:40.583Z,97744.31
2022-11-28T11:32:21.814Z,97732.63
2022-11-28T11:34:51.793Z,97737.31
2022-11-28T11:37:33.654Z,97734.44
2022-11-28T11:40:03.630Z,97730.22
2022-11-28T11:42:34.036Z,97729.38
2022-11-28T11:45:25.782Z,97730.88
2022-11-28T11:47:54.484Z,97724.94
2022-11-28T11:50:26.041Z,97719.38
2022-11-28T11:53:06.403Z,97718.41
2022-11-28T11:55:40.870Z,97717.28
2022-11-28T11:58:12.767Z,97701.00
2022-11-28T12:00:42.128Z,97713.34
2022-11-28T12:03:18.359Z,97706.88
2022-11-28T12:06:13.259Z,97701.53
2022-11-28T12:08:44.306Z,97701.22
2022-11-28T12:11:16.839Z,97692.50
2022-11-28T12:13:45.270Z,97698.84
2022-11-28T12:16:29.255Z,97686.97
2022-11-28T12:19:01.582Z,97691.59
2022-11-28T12:21:37.219Z,97688.75
2022-11-28T12:24:11.557Z,97693.41
2022-11-28T12:26:46.937Z,97689.63
2022-11-28T12:29:39.756Z,97683.81
2022-11-28T12:32:19.896Z,97692.81
2022-11-28T12:34:58.737Z,97693.34
2022-11-28T12:38:08.919Z,97686.72
2022-11-28T12:40:32.966Z,97679.81
2022-11-28T12:43:13.566Z,97681.13
2022-11-28T12:45:48.430Z,97680.50
2022-11-28T12:48:42.710Z,97676.78
2022-11-28T12:51:18.387Z,97678.38
2022-11-28T12:54:00.600Z,97676.91
2022-11-28T12:56:40.031Z,97681.41
2022-11-28T12:59:13.911Z,97675.34
2022-11-28T13:01:53.014Z,97678.72
2022-11-28T13:04:31.538Z,97678.25
2022-11-28T13:07:04.914Z,97680.09
2022-11-28T13:09:36.339Z,97680.16
2022-11-28T13:12:19.316Z,97677.94
2022-11-28T13:14:52.967Z,97671.47
2022-11-28T13:17:30.412Z,97673.97
2022-11-28T13:20:05.094Z,97669.81
2022-11-28T13:22:38.204Z,97673.34
2022-11-28T13:25:10.652Z,97663.63
2022-11-28T13:27:40.974Z,97663.94
2022-11-28T13:30:21.177Z,97665.50
2022-11-28T13:32:54.792Z,97659.47
2022-11-28T13:35:23.760Z,97670.47
2022-11-28T13:40:52.788Z,97668.75
2022-11-28T13:43:26.691Z,97672.25
2022-11-28T13:49:14.545Z,97678.91
2022-11-28T13:51:43.591Z,97676.84
2022-11-28T13:54:45.829Z,97675.50
2022-11-28T13:57:39.922Z,97676.22
2022-11-28T14:00:22.884Z,97671.59
2022-11-28T14:02:53.219Z,97672.25
2022-11-28T14:05:29.531Z,97670.03
2022-11-28T14:07:58.562Z,97677.44
2022-11-28T14:10:36.474Z,97674.75
2022-11-28T14:13:22.872Z,97679.44
2022-11-28T14:16:01.263Z,97675.50
2022-11-28T14:18:56.396Z,97682.88
2022-11-28T14:21:30.326Z,97680.25
2022-11-28T14:24:06.127Z,97679.31
2022-11-28T14:26:36.348Z,97673.16
2022-11-28T14:29:09.157Z,97678.06
2022-11-28T14:31:44.586Z,97683.09
2022-11-28T14:34:41.807Z,97672.91
2022-11-28T14:37:49.097Z,97682.31
2022-11-28T14:40:54.665Z,97683.22
2022-11-28T14:43:27.131Z,97679.97
2022-11-28T14:46:33.765Z,97686.22
2022-11-28T14:49:21.711Z,97678.50
2022-11-28T14:55:20.665Z,97681.88
2022-11-28T14:57:59.912Z,97677.31
2022-11-28T15:00:30.857Z,97689.41
2022-11-28T15:03:08.917Z,97682.72
2022-11-28T15:05:49.416Z,97683.44
2022-11-28T15:08:35.668Z,97689.41
2022-11-28T15:11:21.875Z,97683.44
2022-11-28T15:14:03.036Z,97682.06
2022-11-28T15:16:33.546Z,97697.16
2022-11-28T15:19:07.432Z,97684.78
2022-11-28T15:21:46.184Z,97687.22
2022-11-28T15:24:25.054Z,97688.47
2022-11-28T15:26:57.656Z,97696.97
2022-11-28T15:29:28.355Z,97696.78
2022-11-28T15:31:58.884Z,97691.75
2022-11-28T15:34:29.755Z,97707.75
2022-11-28T15:37:01.764Z,97704.22
2022-11-28T15:39:35.209Z,97703.34
2022-11-28T15:42:05.619Z,97698.25
2022-11-28T15:44:34.883Z,97701.88
2022-11-28T15:47:03.750Z,97706.22
2022-11-28T15:49:34.137Z,97700.19
2022-11-28T15:52:06.551Z,97696.28
2022-11-28T15:54:38.110Z,97696.19
2022-11-28T15:57:07.286Z,97695.38
2022-11-28T15:59:35.663Z,97697.84
2022-11-28T16:02:14.716Z,97694.31
2022-11-28T16:04:44.149Z,97699.50
2022-11-28T16:07:16.403Z,97696.66
2022-11-28T16:09:54.911Z,97692.81
2022-11-28T16:12:23.825Z,97696.75
2022-11-28T16:14:55.484Z,97695.16
2022-11-28T16:17:28.032Z,97695.22
2022-11-28T16:19:57.774Z,97695.94
2022-11-28T16:22:33.842Z,97699.34
2022-11-28T16:25:14.428Z,97698.56
2022-11-28T16:27:45.637Z,97702.19
2022-11-28T16:30:30.343Z,97698.53
2022-11-28T16:33:00.525Z,97705.84
2022-11-28T16:35:32.002Z,97701.03
2022-11-28T16:38:16.538Z,97704.28
2022-11-28T16:40:51.927Z,97716.06
2022-11-28T16:43:23.967Z,97704.03
2022-11-28T16:46:01.207Z,97709.16
2022-11-28T16:48:34.684Z,97709.31
2022-11-28T16:51:30.027Z,97708.06
2022-11-28T16:54:03.614Z,97701.97
2022-11-28T16:56:44.595Z,97701.97
2022-11-28T16:59:15.424Z,97708.91
2022-11-28T17:01:46.593Z,97709.47
2022-11-28T17:04:26.749Z,97719.78
2022-11-28T17:06:57.424Z,97721.03
2022-11-28T17:09:29.147Z,97716.91
2022-11-28T17:11:59.823Z,97719.44
2022-11-28T17:14:28.958Z,97724.47
2022-11-28T17:17:00.275Z,97718.44
2022-11-28T17:19:30.447Z,97723.38
2022-11-28T17:22:01.505Z,97724.25
2022-11-28T17:24:35.932Z,97725.63
2022-11-28T17:27:08.389Z,97724.16
2022-11-28T17:29:38.581Z,97733.91
2022-11-28T17:32:10.774Z,97729.19
2022-11-28T17:34:42.669Z,97735.69
2022-11-28T17:37:12.503Z,97726.41
2022-11-28T17:40:04.313Z,97725.53
2022-11-28T17:42:35.713Z,97729.56
2022-11-28T17:45:05.321Z,97737.16
2022-11-28T17:47:37.145Z,97733.44
2022-11-28T17:50:08.164Z,97739.22
2022-11-28T17:52:39.110Z,97729.09
2022-11-28T17:55:11.492Z,97733.00
2022-11-28T17:57:43.216Z,97737.16
2022-11-28T18:00:17.351Z,97738.22
2022-11-28T18:02:47.683Z,97736.81
2022-11-28T18:05:17.458Z,97737.59
2022-11-28T18:07:48.382Z,97737.41
2022-11-28T18:10:19.881Z,97736.47
2022-11-28T18:12:49.173Z,97734.97
2022-11-28T18:15:20.009Z,97729.84
2022-11-28T18:17:50.484Z,97732.38
2022-11-28T18:20:22.613Z,97737.25
2022-11-28T18:22:52.950Z,97735.19
2022-11-28T18:25:25.496Z,97738.75
2022-11-28T18:27:55.663Z,97722.47
2022-11-28T18:30:25.702Z,97725.16
2022-11-28T18:32:56.026Z,97722.72
2022-11-28T18:35:26.156Z,97731.31
2022-11-28T18:37:56.005Z,97725.31
2022-11-28T18:40:29.222Z,97728.44
2022-11-28T18:42:59.660Z,97729.19
2022-11-28T18:45:30.041Z,97733.50
2022-11-28T18:48:01.183Z,97737.09
2022-11-28T18:50:32.802Z,97732.72
2022-11-28T18:53:03.297Z,97732.56
2022-11-28T18:55:36.741Z,97724.09
2022-11-28T18:58:07.315Z,97732.00
2022-11-28T19:00:37.676Z,97732.22
2022-11-28T19:03:08.203Z,97724.41
2022-11-28T19:05:46.049Z,97727.56
2022-11-28T19:08:15.468Z,97724.09
2022-11-28T19:10:49.139Z,97720.59
2022-11-28T19:13:20.698Z,97729.34
2022-11-28T19:15:52.265Z,97732.56
2022-11-28T19:18:25.772Z,97727.19
2022-11-28T19:20:56.350Z,97725.88
2022-11-28T19:23:25.882Z,97734.03
2022-11-28T19:26:04.064Z,97731.53
2022-11-28T19:28:33.832Z,97725.50
2022-11-28T19:31:08.082Z,97733.84
2022-11-28T19:33:43.983Z,97726.81
2022-11-28T19:36:16.454Z,97727.47
2022-11-28T19:38:47.117Z,97730.09
2022-11-28T19:41:20.600Z,97727.63
2022-11-28T19:43:52.190Z,97734.88
2022-11-28T19:46:22.721Z,97729.34
2022-11-28T19:48:53.322Z,97737.94
2022-11-28T19:51:23.112Z,97737.16
2022-11-28T19:53:54.609Z,97747.31
2022-11-28T19:56:29.543Z,97749.75
2022-11-28T19:59:00.506Z,97738.59
2022-11-28T20:01:31.747Z,97737.34
2022-11-28T20:04:01.924Z,97745.00
2022-11-28T20:06:34.230Z,97743.38
2022-11-28T20:09:10.201Z,97741.09
2022-11-28T20:11:46.278Z,97753.94
2022-11-28T20:14:19.319Z,97747.13
2022-11-28T20:16:50.675Z,97746.72
2022-11-28T20:19:23.366Z,97741.47
2022-11-28T20:21:54.120Z,97747.16
2022-11-28T20:24:24.131Z,97742.44
2022-11-28T20:26:58.124Z,97744.22
2022-11-28T20:29:31.546Z,97750.91
2022-11-28T20:32:02.220Z,97749.72
2022-11-28T20:34:32.421Z,97757.09
2022-11-28T20:37:03.518Z,97763.81
2022-11-28T20:39:35.668Z,97756.38
2022-11-28T20:42:11.756Z,97767.34
2022-11-28T20:44:41.823Z,97765.00
2022-11-28T20:47:16.606Z,97766.94
2022-11-28T20:49:46.439Z,97761.47
2022-11-28T20:52:17.237Z,97765.66
2022-11-28T20:54:49.452Z,97767.13
2022-11-28T20:57:22.206Z,97760.59
2022-11-28T20:59:53.066Z,97763.22
2022-11-28T21:02:22.826Z,97763.59
2022-11-28T21:04:53.888Z,97764.28
2022-11-28T21:07:26.078Z,97759.44
2022-11-28T21:10:00.090Z,97759.38
2022-11-28T21:12:32.106Z,97764.94
2022-11-28T21:15:02.511Z,97759.00
2022-11-28T21:17:32.323Z,97757.56
2022-11-28T21:20:01.127Z,97760.19
2022-11-28T21:22:32.504Z,97760.03
2022-11-28T21:25:01.141Z,97751.63
2022-11-28T21:27:32.718Z,97754.81
2022-11-28T21:30:02.503Z,97751.53
2022-11-28T21:32:31.309Z,97744.97
2022-11-28T21:35:04.119Z,97744.91
2022-11-28T21:37:33.564Z,97741.38
2022-11-28T21:40:02.158Z,97734.50
2022-11-28T21:42:32.113Z,97737.25
2022-11-28T21:45:00.409Z,97736.19
2022-11-28T21:47:28.944Z,97739.28
2022-11-28T21:49:57.281Z,97734.09
2022-11-28T21:52:25.556Z,97727.75
2022-11-28T21:54:54.008Z,97727.75
2022-11-28T21:57:23.006Z,97733.00
2022-11-28T21:59:52.921Z,97733.88
2022-11-28T22:02:24.957Z,97731.13
2022-11-28T22:04:56.145Z,97732.72
2022-11-28T22:07:24.546Z,97730.75
2022-11-28T22:09:53.024Z,97737.06
2022-11-28T22:12:21.353Z,97735.41
2022-11-28T22:14:49.982Z,97732.84
2022-11-28T22:17:22.826Z,97726.88
2022-11-28T22:19:52.017Z,97726.84
2022-11-28T22:22:23.014Z,97720.72
2022-11-28T22:24:51.552Z,97728.72
2022-11-28T22:27:20.064Z,97725.25
2022-11-28T22:29:49.026Z,97724.50
2022-11-28T22:32:19.394Z,97730.59
2022-11-28T22:34:47.825Z,97721.88
2022-11-28T22:37:16.831Z,97722.97
2022-11-28T22:39:45.413Z,97723.84
2022-11-28T22:42:13.889Z,97725.84
2022-11-28T22:44:42.768Z,97719.56
2022-11-28T22:47:11.404Z,97724.06
2022-11-28T22:49:41.172Z,97719.53
2022-11-28T22:52:09.876Z,97720.81
2022-11-28T22:54:39.015Z,97723.22
2022-11-28T22:57:07.884Z,97718.88
2022-11-28T22:59:38.691Z,97721.06
2022-11-28T23:02:07.151Z,97717.44
2022-11-28T23:04:36.272Z,97717.94
2022-11-28T23:07:06.222Z,97722.88
2022-11-28T23:09:34.694Z,97720.41
2022-11-28T23:12:03.145Z,97717.56
2022-11-28T23:14:32.278Z,97722.88
2022-11-28T23:17:00.675Z,97715.94
2022-11-28T23:19:32.344Z,97723.50
2022-11-28T23:22:01.125Z,97712.19
2022-11-28T23:24:30.857Z,97715.53
2022-11-28T23:26:59.997Z,97719.50
2022-11-28T23:29:28.412Z,97712.28
2022-11-28T23:31:57.041Z,97727.16
2022-11-28T23:34:28.225Z,97721.34
2022-11-28T23:36:56.567Z,97726.53
2022-11-28T23:39:25.867Z,97715.84
2022-11-28T23:42:05.572Z,97715.22
2022-11-28T23:44:33.844Z,97718.88
2022-11-28T23:47:02.184Z,97715.22
2022-11-28T23:49:30.457Z,97712.91
2022-11-28T23:51:59.132Z,97712.09
2022-11-28T23:54:27.402Z,97711.09
2022-11-28T23:56:55.901Z,97710.88
2022-11-28T23:59:25.607Z,97712.06
